Aviation Digital Data Service (ADDS)

Output produced by METARs form (1738 UTC 23 July 2018)
found at http://aviationweather.gov/adds/metars/
 
METAR text: KPVF 231715Z AUTO 31004KT 10SM CLR 28/14 A3016 RMK AO1
Conditions at: KPVF (PLACERVILLE , CA, US) observed 1715 UTC 23 July 2018
Temperature: 28.0°C (82°F)
Dewpoint: 14.0°C (57°F) [RH = 42%]
Pressure (altimeter): 30.16 inches Hg (1021.4 mb)
Winds: from the NW (310 degrees) at 5 MPH (4 knots; 2.1 m/s)
Visibility: 10 or more miles (16+ km)
Ceiling: at least 12,000 feet AGL
Clouds: sky clear below 12,000 feet AGL
Weather: automated observation with no human augmentation;
there may or may not be significant weather present at this time